createdAt,value
2019-05-23T00:00:49.237Z,99.90
2019-05-23T00:05:42.752Z,99.90
2019-05-23T00:10:28.916Z,99.90
2019-05-23T00:15:10.657Z,99.90
2019-05-23T00:19:46.936Z,99.90
2019-05-23T00:24:23.937Z,99.90
2019-05-23T00:29:09.978Z,99.90
2019-05-23T00:33:40.373Z,99.90
2019-05-23T00:38:16.823Z,99.90
2019-05-23T00:42:53.501Z,99.90
2019-05-23T00:47:30.781Z,99.90
2019-05-23T00:52:08.504Z,99.90
2019-05-23T00:56:44.452Z,99.90
2019-05-23T01:01:21.239Z,99.90
2019-05-23T01:05:57.226Z,99.90
2019-05-23T01:10:33.426Z,99.90
2019-05-23T01:15:10.738Z,99.90
2019-05-23T01:19:46.705Z,99.90
2019-05-23T01:24:44.092Z,99.90
2019-05-23T01:29:20.792Z,99.90
2019-05-23T01:33:58.106Z,99.90
2019-05-23T01:38:34.829Z,99.90
2019-05-23T01:43:12.068Z,99.90
2019-05-23T01:47:50.209Z,99.90
2019-05-23T01:52:26.561Z,99.90
2019-05-23T01:57:02.375Z,99.90
2019-05-23T02:01:39.565Z,99.90
2019-05-23T02:06:15.340Z,99.90
2019-05-23T02:10:51.081Z,99.90
2019-05-23T02:15:26.948Z,99.90
2019-05-23T02:20:03.483Z,99.90
2019-05-23T02:24:39.375Z,99.90
2019-05-23T02:29:15.603Z,99.90
2019-05-23T02:33:51.438Z,99.90
2019-05-23T02:38:55.346Z,99.90
2019-05-23T02:43:32.125Z,99.90
2019-05-23T02:48:12.184Z,99.90
2019-05-23T02:52:50.583Z,99.90
2019-05-23T02:57:28.291Z,99.90
2019-05-23T03:02:36.010Z,99.90
2019-05-23T03:07:13.312Z,99.90
2019-05-23T03:11:50.039Z,99.90
2019-05-23T03:16:29.179Z,99.90
2019-05-23T03:21:05.673Z,99.90
2019-05-23T03:26:19.837Z,99.90
2019-05-23T03:31:25.634Z,99.90
2019-05-23T03:35:39.045Z,99.90
2019-05-23T03:40:15.197Z,99.90
2019-05-23T03:44:51.473Z,99.90
2019-05-23T03:49:28.483Z,99.90
2019-05-23T03:54:06.560Z,99.90
2019-05-23T03:58:43.978Z,99.90
2019-05-23T04:03:21.146Z,99.90
2019-05-23T04:07:58.479Z,99.90
2019-05-23T04:12:34.535Z,99.90
2019-05-23T04:17:10.483Z,99.90
2019-05-23T04:21:46.249Z,99.90
2019-05-23T04:26:22.929Z,99.90
2019-05-23T04:30:59.430Z,99.90
2019-05-23T04:35:35.581Z,99.90
2019-05-23T04:40:13.196Z,99.90
2019-05-23T04:44:48.936Z,99.90
2019-05-23T04:49:24.739Z,99.90
2019-05-23T04:54:01.795Z,99.90
2019-05-23T04:58:38.741Z,99.90
2019-05-23T05:03:17.854Z,99.90
2019-05-23T05:07:52.385Z,99.90
2019-05-23T05:12:28.208Z,99.90
2019-05-23T05:17:04.850Z,99.90
2019-05-23T05:21:40.702Z,99.90
2019-05-23T05:26:22.352Z,99.90
2019-05-23T05:30:58.324Z,99.90
2019-05-23T05:35:35.593Z,99.90
2019-05-23T05:40:11.657Z,99.90
2019-05-23T05:44:47.525Z,99.90
2019-05-23T05:49:23.513Z,99.90
2019-05-23T05:53:59.733Z,99.90
2019-05-23T05:58:35.659Z,99.90
2019-05-23T06:03:11.821Z,99.90
2019-05-23T06:07:47.822Z,99.90
2019-05-23T06:12:23.905Z,99.90
2019-05-23T06:17:01.173Z,99.90
2019-05-23T06:21:37.042Z,99.90
2019-05-23T06:26:12.803Z,99.90
2019-05-23T06:30:49.937Z,99.90
2019-05-23T06:35:25.792Z,99.90
2019-05-23T06:40:02.237Z,99.90
2019-05-23T06:44:38.055Z,99.90
2019-05-23T06:49:13.986Z,99.90
2019-05-23T06:53:50.009Z,99.90
2019-05-23T06:58:26.753Z,99.90
2019-05-23T07:03:02.662Z,99.90
2019-05-23T07:07:38.743Z,99.90
2019-05-23T07:12:14.490Z,99.90
2019-05-23T07:16:50.512Z,99.90
2019-05-23T07:21:26.282Z,99.90
2019-05-23T07:26:02.089Z,99.90
2019-05-23T07:30:38.372Z,99.90
2019-05-23T07:35:14.417Z,99.10
2019-05-23T07:39:50.156Z,99.00
2019-05-23T07:44:26.241Z,98.50
2019-05-23T07:49:02.767Z,96.50
2019-05-23T07:53:49.808Z,98.40
2019-05-23T07:58:25.790Z,98.00
2019-05-23T08:03:04.140Z,96.40
2019-05-23T08:07:40.773Z,96.50
2019-05-23T08:12:16.601Z,96.30
2019-05-23T08:16:52.758Z,96.20
2019-05-23T08:21:28.724Z,95.70
2019-05-23T08:26:04.464Z,93.30
2019-05-23T08:30:40.541Z,94.40
2019-05-23T08:35:18.078Z,94.00
2019-05-23T08:39:54.644Z,94.60
2019-05-23T08:44:30.599Z,93.40
2019-05-23T08:49:07.891Z,93.00
2019-05-23T08:53:43.753Z,93.20
2019-05-23T08:58:19.698Z,92.80
2019-05-23T09:02:58.436Z,93.30
2019-05-23T09:07:33.210Z,92.80
2019-05-23T09:12:09.464Z,93.50
2019-05-23T09:16:45.542Z,93.40
2019-05-23T09:21:21.365Z,91.70
2019-05-23T09:25:57.335Z,90.60
2019-05-23T09:30:33.477Z,91.40
2019-05-23T09:35:20.125Z,90.80
2019-05-23T09:39:48.097Z,90.10
2019-05-23T09:44:23.883Z,90.50
2019-05-23T09:48:59.638Z,91.00
2019-05-23T09:53:35.476Z,91.80
2019-05-23T09:58:11.480Z,91.10
2019-05-23T10:02:47.313Z,90.60
2019-05-23T10:07:23.066Z,90.00
2019-05-23T10:11:58.839Z,88.60
2019-05-23T10:16:34.585Z,86.30
2019-05-23T10:21:10.664Z,85.40
2019-05-23T10:25:46.625Z,87.80
2019-05-23T10:30:23.610Z,89.00
2019-05-23T10:34:59.365Z,90.70
2019-05-23T10:39:35.575Z,90.80
2019-05-23T10:44:11.625Z,90.20
2019-05-23T10:48:47.693Z,90.40
2019-05-23T10:53:23.557Z,90.90
2019-05-23T10:57:59.329Z,90.70
2019-05-23T11:02:36.456Z,88.00
2019-05-23T11:07:12.928Z,89.70
2019-05-23T11:11:48.672Z,85.20
2019-05-23T11:16:24.565Z,86.30
2019-05-23T11:21:00.509Z,85.50
2019-05-23T11:25:38.999Z,79.20
2019-05-23T11:30:21.437Z,80.70
2019-05-23T11:34:57.206Z,77.90
2019-05-23T11:39:33.030Z,77.20
2019-05-23T11:44:08.795Z,77.60
2019-05-23T11:48:44.547Z,76.40
2019-05-23T11:53:20.319Z,74.80
2019-05-23T11:57:56.869Z,73.20
2019-05-23T12:02:37.474Z,74.60
2019-05-23T12:07:24.428Z,72.30
2019-05-23T12:12:00.240Z,71.40
2019-05-23T12:16:36.203Z,69.70
2019-05-23T12:21:11.987Z,72.50
2019-05-23T12:25:48.232Z,68.70
2019-05-23T12:30:24.013Z,65.00
2019-05-23T12:35:10.268Z,66.80
2019-05-23T12:39:37.351Z,67.10
2019-05-23T12:44:17.349Z,67.60
2019-05-23T12:48:57.936Z,65.20
2019-05-23T12:53:33.777Z,69.20
2019-05-23T12:58:09.563Z,72.30
2019-05-23T13:02:45.521Z,70.70
2019-05-23T13:07:35.224Z,69.40
2019-05-23T13:11:59.844Z,66.70
2019-05-23T13:16:35.626Z,67.90
2019-05-23T13:21:11.679Z,69.00
2019-05-23T13:25:47.847Z,67.70
2019-05-23T13:30:23.598Z,67.00
2019-05-23T13:34:59.369Z,63.90
2019-05-23T13:39:35.328Z,65.80
2019-05-23T13:44:29.634Z,66.80
2019-05-23T13:48:48.742Z,66.20
2019-05-23T13:53:24.714Z,67.20
2019-05-23T13:58:00.684Z,65.60
2019-05-23T14:02:36.558Z,66.10
2019-05-23T14:07:12.905Z,64.40
2019-05-23T14:11:48.777Z,66.10
2019-05-23T14:16:24.526Z,65.10
2019-05-23T14:21:00.350Z,67.20
2019-05-23T14:25:36.756Z,67.30
2019-05-23T14:30:27.834Z,65.90
2019-05-23T14:35:03.792Z,66.00
2019-05-23T14:39:45.920Z,66.40
2019-05-23T14:44:21.845Z,66.80
2019-05-23T14:49:22.665Z,66.20
2019-05-23T14:54:03.903Z,65.40
2019-05-23T14:58:39.752Z,63.20
2019-05-23T15:03:15.703Z,65.20
2019-05-23T15:07:51.488Z,65.70
2019-05-23T15:12:27.286Z,63.70
2019-05-23T15:17:03.068Z,65.30
2019-05-23T15:21:38.837Z,64.60
2019-05-23T15:26:22.941Z,64.80
2019-05-23T15:30:52.169Z,65.10
2019-05-23T15:35:28.218Z,65.90
2019-05-23T15:40:04.537Z,65.20
2019-05-23T15:44:40.315Z,63.30
2019-05-23T15:49:16.063Z,63.30
2019-05-23T15:54:16.530Z,59.30
2019-05-23T15:59:14.032Z,58.00
2019-05-23T16:03:56.582Z,57.30
2019-05-23T16:08:32.378Z,54.80
2019-05-23T16:13:08.180Z,55.70
2019-05-23T16:17:44.026Z,52.10
2019-05-23T16:22:19.825Z,54.10
2019-05-23T16:26:55.755Z,55.40
2019-05-23T16:31:31.617Z,54.90
2019-05-23T16:36:07.770Z,55.50
2019-05-23T16:40:43.589Z,53.50
2019-05-23T16:45:19.496Z,53.50
2019-05-23T16:49:55.418Z,53.20
2019-05-23T16:54:35.989Z,52.80
2019-05-23T16:59:23.466Z,55.00
2019-05-23T17:04:10.825Z,54.40
2019-05-23T17:09:08.307Z,56.30
2019-05-23T17:13:48.132Z,53.20
2019-05-23T17:18:58.085Z,53.30
2019-05-23T17:23:57.441Z,52.80
2019-05-23T17:28:39.483Z,54.60
2019-05-23T17:33:16.128Z,58.60
2019-05-23T17:37:51.919Z,58.20
2019-05-23T17:42:27.665Z,57.90
2019-05-23T17:47:03.442Z,59.20
2019-05-23T17:51:39.293Z,60.70
2019-05-23T17:56:15.175Z,62.80
2019-05-23T18:00:51.029Z,63.60
2019-05-23T18:05:27.009Z,66.30
2019-05-23T18:10:02.856Z,69.00
2019-05-23T18:14:38.660Z,71.00
2019-05-23T18:19:14.576Z,74.30
2019-05-23T18:23:50.636Z,75.10
2019-05-23T18:28:27.354Z,77.30
2019-05-23T18:33:03.540Z,77.00
2019-05-23T18:37:39.548Z,77.90
2019-05-23T18:42:15.340Z,78.60
2019-05-23T18:46:53.134Z,78.90
2019-05-23T18:51:29.001Z,80.70
2019-05-23T18:56:04.992Z,80.30
2019-05-23T19:01:18.429Z,81.30
2019-05-23T19:05:54.295Z,83.20
2019-05-23T19:10:30.704Z,84.70
2019-05-23T19:15:06.992Z,83.80
2019-05-23T19:19:43.161Z,84.60
2019-05-23T19:24:18.921Z,83.30
2019-05-23T19:28:54.786Z,83.60
2019-05-23T19:33:30.578Z,84.10
2019-05-23T19:38:06.753Z,82.60
2019-05-23T19:42:42.517Z,85.10
2019-05-23T19:47:18.323Z,84.80
2019-05-23T19:51:54.143Z,85.90
2019-05-23T19:56:30.361Z,87.20
2019-05-23T20:01:07.245Z,86.40
2019-05-23T20:05:43.041Z,87.70
2019-05-23T20:10:19.078Z,87.50
2019-05-23T20:14:54.925Z,89.80
2019-05-23T20:19:30.679Z,91.50
2019-05-23T20:24:06.504Z,91.50
2019-05-23T20:28:42.325Z,91.60
2019-05-23T20:33:18.475Z,91.80
2019-05-23T20:37:54.282Z,91.80
2019-05-23T20:42:30.360Z,92.00
2019-05-23T20:47:06.590Z,92.90
2019-05-23T20:51:42.873Z,92.40
2019-05-23T20:56:18.729Z,93.40
2019-05-23T21:01:06.653Z,93.10
2019-05-23T21:05:42.393Z,93.80
2019-05-23T21:10:44.817Z,93.30
2019-05-23T21:15:20.624Z,93.40
2019-05-23T21:19:56.402Z,93.50
2019-05-23T21:24:33.050Z,93.80
2019-05-23T21:29:08.836Z,93.60
2019-05-23T21:33:44.601Z,93.90
2019-05-23T21:38:20.530Z,94.10
2019-05-23T21:42:56.390Z,94.00
2019-05-23T21:47:32.166Z,94.30
2019-05-23T21:52:07.942Z,94.50
2019-05-23T21:56:43.717Z,94.90
2019-05-23T22:01:40.211Z,93.90
2019-05-23T22:06:19.109Z,94.70
2019-05-23T22:10:54.945Z,94.90
2019-05-23T22:15:37.422Z,94.70
2019-05-23T22:20:13.187Z,94.10
2019-05-23T22:24:49.018Z,94.40
2019-05-23T22:29:25.280Z,93.80
2019-05-23T22:34:06.889Z,94.00
2019-05-23T22:38:42.638Z,93.70
2019-05-23T22:43:21.307Z,93.70
2019-05-23T22:47:56.385Z,94.10
2019-05-23T22:52:32.152Z,94.40
2019-05-23T22:57:07.907Z,94.00
2019-05-23T23:01:43.673Z,94.50
2019-05-23T23:06:20.117Z,94.50
2019-05-23T23:10:55.881Z,94.30
2019-05-23T23:15:32.438Z,94.40
2019-05-23T23:20:08.405Z,94.60
2019-05-23T23:24:44.242Z,94.50
2019-05-23T23:29:20.097Z,94.80
2019-05-23T23:33:55.885Z,94.50
2019-05-23T23:38:31.719Z,94.20
2019-05-23T23:43:07.586Z,94.60
2019-05-23T23:48:00.713Z,94.60
2019-05-23T23:52:54.073Z,94.40
2019-05-23T23:57:47.289Z,94.20
